LOT5MJ EPWA-LTFE
Flight info
| Callsign | LOT5MJ |
|---|---|
| Flight time | 2h 21m |
| Altitude | 36000 |
| Route | EVIN7G EVINA M985 KOTEK ORTEB KOJOT PERIT NARKA ADUKU EVRIK OLMIP EKNAB SODGO PENEV RODIP UN131 PIBOM BELGI UN131 DUGLA UG80 OKESA OKES1J |
| Aircraft | B38M/M-SDE1E2E3FGHIJ2J3J4J5M1RWXYZ/HB1 |
Departure
| Time | 2026-05-01 10:35 |
|---|---|
| Airport | Warsaw Chopin Airport (EPWA) |
Arrival
| Time | 2026-05-01 12:56 |
|---|---|
| Airport | Milas Bodrum International Airport (LTFE) |
| Time | Latitude | Longitude | Altitude | Speed | Heading |
|---|---|---|---|---|---|
| 2026-05-01 10:12 | 52.17002 | 20.96840 | 331 ft | 0 kts | 277° |
| 2026-05-01 10:30 | 52.16998 | 20.96780 | 331 ft | 7 kts | 245° |
| 2026-05-01 10:30 | 52.16910 | 20.96818 | 331 ft | 8 kts | 152° |
| 2026-05-01 10:31 | 52.16827 | 20.96890 | 332 ft | 9 kts | 152° |
| 2026-05-01 10:31 | 52.16584 | 20.97101 | 336 ft | 16 kts | 152° |
| 2026-05-01 10:32 | 52.16419 | 20.97275 | 337 ft | 15 kts | 121° |
| 2026-05-01 10:32 | 52.16360 | 20.97477 | 337 ft | 25 kts | 115° |
| 2026-05-01 10:32 | 52.16203 | 20.98036 | 334 ft | 24 kts | 114° |
| 2026-05-01 10:33 | 52.16147 | 20.98183 | 334 ft | 4 kts | 271° |
| 2026-05-01 10:33 | 52.16182 | 20.98104 | 334 ft | 0 kts | 295° |
| 2026-05-01 10:34 | 52.16205 | 20.98025 | 334 ft | 33 kts | 295° |
| 2026-05-01 10:35 | 52.16733 | 20.96153 | 340 ft | 138 kts | 297° |
| 2026-05-01 10:35 | 52.17179 | 20.94522 | 742 ft | 170 kts | 296° |
| 2026-05-01 10:35 | 52.17701 | 20.92699 | 1575 ft | 183 kts | 300° |
| 2026-05-01 10:35 | 52.18251 | 20.90875 | 2486 ft | 192 kts | 297° |
| 2026-05-01 10:36 | 52.18013 | 20.86248 | 4048 ft | 231 kts | 256° |
| 2026-05-01 10:36 | 52.17538 | 20.83642 | 4768 ft | 253 kts | 258° |
| 2026-05-01 10:36 | 52.17098 | 20.80815 | 5716 ft | 266 kts | 261° |
| 2026-05-01 10:37 | 52.16675 | 20.77847 | 6563 ft | 284 kts | 261° |
| 2026-05-01 10:37 | 52.15562 | 20.71508 | 8617 ft | 305 kts | 247° |
| 2026-05-01 10:37 | 52.14267 | 20.68751 | 9589 ft | 319 kts | 225° |
| 2026-05-01 10:38 | 52.12519 | 20.66454 | 10552 ft | 327 kts | 217° |
| 2026-05-01 10:38 | 52.10647 | 20.64286 | 11253 ft | 343 kts | 216° |
| 2026-05-01 10:38 | 52.08633 | 20.61951 | 11889 ft | 360 kts | 217° |
| 2026-05-01 10:38 | 52.06579 | 20.59484 | 12483 ft | 377 kts | 218° |
| 2026-05-01 10:39 | 52.04467 | 20.56873 | 13040 ft | 393 kts | 219° |
| 2026-05-01 10:39 | 52.02274 | 20.54120 | 13832 ft | 401 kts | 219° |
| 2026-05-01 10:39 | 52.00060 | 20.51329 | 14668 ft | 407 kts | 219° |
| 2026-05-01 10:39 | 51.97828 | 20.48541 | 15519 ft | 412 kts | 217° |
| 2026-05-01 10:40 | 51.95415 | 20.45957 | 16292 ft | 417 kts | 208° |
| 2026-05-01 10:40 | 51.92753 | 20.44218 | 17003 ft | 418 kts | 192° |
| 2026-05-01 10:40 | 51.89894 | 20.43383 | 17521 ft | 422 kts | 184° |
| 2026-05-01 10:40 | 51.86952 | 20.42901 | 18171 ft | 423 kts | 181° |
| 2026-05-01 10:41 | 51.84016 | 20.42545 | 18691 ft | 428 kts | 180° |
| 2026-05-01 10:41 | 51.81082 | 20.42213 | 19311 ft | 430 kts | 180° |
| 2026-05-01 10:41 | 51.75079 | 20.41451 | 20398 ft | 438 kts | 181° |
| 2026-05-01 10:42 | 51.72032 | 20.41020 | 20959 ft | 441 kts | 182° |
| 2026-05-01 10:42 | 51.68961 | 20.40568 | 21445 ft | 445 kts | 182° |
| 2026-05-01 10:42 | 51.65895 | 20.40108 | 21954 ft | 449 kts | 182° |
| 2026-05-01 10:42 | 51.62768 | 20.39633 | 22502 ft | 451 kts | 181° |
| 2026-05-01 10:43 | 51.59651 | 20.39161 | 22987 ft | 455 kts | 181° |
| 2026-05-01 10:43 | 51.56487 | 20.38681 | 23503 ft | 457 kts | 181° |
| 2026-05-01 10:43 | 51.53361 | 20.38210 | 23937 ft | 461 kts | 182° |
| 2026-05-01 10:43 | 51.50161 | 20.37729 | 24398 ft | 464 kts | 181° |
| 2026-05-01 10:44 | 51.46932 | 20.37244 | 24901 ft | 466 kts | 181° |
| 2026-05-01 10:44 | 51.43723 | 20.36763 | 25327 ft | 470 kts | 182° |
| 2026-05-01 10:44 | 51.40431 | 20.36269 | 25743 ft | 473 kts | 182° |
| 2026-05-01 10:44 | 51.37165 | 20.35778 | 26208 ft | 475 kts | 181° |
| 2026-05-01 10:45 | 51.33898 | 20.35290 | 26608 ft | 478 kts | 182° |
| 2026-05-01 10:45 | 51.30572 | 20.34793 | 27065 ft | 480 kts | 181° |
| 2026-05-01 10:45 | 51.27255 | 20.34297 | 27426 ft | 483 kts | 180° |
| 2026-05-01 10:45 | 51.23917 | 20.33799 | 27871 ft | 485 kts | 181° |
| 2026-05-01 10:46 | 51.20546 | 20.33299 | 28207 ft | 488 kts | 181° |
| 2026-05-01 10:46 | 51.17183 | 20.32801 | 28613 ft | 490 kts | 180° |
| 2026-05-01 10:46 | 51.13800 | 20.32301 | 28995 ft | 492 kts | 180° |
| 2026-05-01 10:46 | 51.10361 | 20.31792 | 29363 ft | 495 kts | 180° |
| 2026-05-01 10:47 | 51.06936 | 20.31288 | 29738 ft | 497 kts | 181° |
| 2026-05-01 10:47 | 51.03494 | 20.30781 | 30109 ft | 499 kts | 180° |
| 2026-05-01 10:47 | 51.00044 | 20.30275 | 30423 ft | 502 kts | 180° |
| 2026-05-01 10:47 | 50.96547 | 20.29762 | 30796 ft | 504 kts | 181° |
| 2026-05-01 10:48 | 50.93036 | 20.29250 | 31001 ft | 508 kts | 180° |
| 2026-05-01 10:48 | 50.89538 | 20.28738 | 31355 ft | 509 kts | 180° |
| 2026-05-01 10:48 | 50.85997 | 20.28221 | 31640 ft | 511 kts | 180° |
| 2026-05-01 10:48 | 50.82499 | 20.27708 | 32040 ft | 510 kts | 181° |
| 2026-05-01 10:49 | 50.78936 | 20.27187 | 32440 ft | 509 kts | 181° |
| 2026-05-01 10:49 | 50.75435 | 20.26676 | 32841 ft | 507 kts | 181° |
| 2026-05-01 10:49 | 50.71931 | 20.26167 | 33222 ft | 506 kts | 181° |
| 2026-05-01 10:49 | 50.68441 | 20.25786 | 33539 ft | 504 kts | 177° |
| 2026-05-01 10:50 | 50.64968 | 20.25832 | 33830 ft | 501 kts | 171° |
| 2026-05-01 10:50 | 50.61537 | 20.26405 | 34146 ft | 496 kts | 165° |
| 2026-05-01 10:50 | 50.58204 | 20.27494 | 34434 ft | 491 kts | 158° |
| 2026-05-01 10:50 | 50.54953 | 20.29104 | 34714 ft | 485 kts | 152° |
| 2026-05-01 10:51 | 50.51878 | 20.31076 | 35050 ft | 480 kts | 149° |
| 2026-05-01 10:51 | 50.48818 | 20.33233 | 35359 ft | 478 kts | 148° |
| 2026-05-01 10:51 | 50.45801 | 20.35381 | 35639 ft | 478 kts | 148° |
| 2026-05-01 10:51 | 50.42788 | 20.37463 | 35888 ft | 479 kts | 149° |
| 2026-05-01 10:52 | 50.39718 | 20.39492 | 36210 ft | 478 kts | 150° |
| 2026-05-01 10:52 | 50.33543 | 20.43352 | 36315 ft | 481 kts | 152° |
| 2026-05-01 10:53 | 50.27342 | 20.47032 | 36321 ft | 479 kts | 152° |
| 2026-05-01 10:53 | 50.21145 | 20.50645 | 36321 ft | 480 kts | 152° |
| 2026-05-01 10:54 | 50.14875 | 20.54278 | 36324 ft | 480 kts | 152° |
| 2026-05-01 10:54 | 50.08621 | 20.57871 | 36332 ft | 481 kts | 153° |
| 2026-05-01 10:55 | 50.02276 | 20.61253 | 36335 ft | 483 kts | 154° |
| 2026-05-01 10:55 | 49.95924 | 20.64482 | 36334 ft | 482 kts | 154° |
| 2026-05-01 10:56 | 49.89555 | 20.67713 | 36326 ft | 483 kts | 155° |
| 2026-05-01 10:56 | 49.83201 | 20.70951 | 36322 ft | 483 kts | 155° |
| 2026-05-01 10:57 | 49.76852 | 20.74198 | 36327 ft | 483 kts | 154° |
| 2026-05-01 10:57 | 49.70473 | 20.77466 | 36326 ft | 483 kts | 154° |
| 2026-05-01 10:58 | 49.64119 | 20.80718 | 36318 ft | 484 kts | 154° |
| 2026-05-01 10:58 | 49.57772 | 20.83956 | 36310 ft | 482 kts | 154° |
| 2026-05-01 10:59 | 49.51424 | 20.87182 | 36302 ft | 482 kts | 154° |
| 2026-05-01 10:59 | 49.45052 | 20.90412 | 36302 ft | 482 kts | 154° |
| 2026-05-01 11:00 | 49.38701 | 20.93619 | 36298 ft | 482 kts | 154° |
| 2026-05-01 11:00 | 49.32329 | 20.96830 | 36286 ft | 484 kts | 154° |
| 2026-05-01 11:01 | 49.25970 | 21.00026 | 36274 ft | 482 kts | 154° |
| 2026-05-01 11:01 | 49.19620 | 21.03205 | 36274 ft | 482 kts | 154° |
| 2026-05-01 11:02 | 49.13245 | 21.06397 | 36285 ft | 483 kts | 154° |
| 2026-05-01 11:02 | 49.06902 | 21.09567 | 36300 ft | 482 kts | 154° |
| 2026-05-01 11:03 | 49.00576 | 21.12711 | 36308 ft | 482 kts | 154° |
| 2026-05-01 11:03 | 48.94150 | 21.15812 | 36290 ft | 484 kts | 156° |
| 2026-05-01 11:04 | 48.87696 | 21.18514 | 36317 ft | 487 kts | 158° |
| 2026-05-01 11:04 | 48.81147 | 21.21125 | 36345 ft | 487 kts | 158° |
| 2026-05-01 11:05 | 48.74632 | 21.23723 | 36324 ft | 485 kts | 158° |
| 2026-05-01 11:05 | 48.68095 | 21.26371 | 36331 ft | 485 kts | 157° |
| 2026-05-01 11:06 | 48.61622 | 21.29003 | 36313 ft | 485 kts | 157° |
| 2026-05-01 11:06 | 48.55120 | 21.31649 | 36321 ft | 486 kts | 157° |
| 2026-05-01 11:07 | 48.45317 | 21.35637 | 36312 ft | 485 kts | 157° |
| 2026-05-01 11:07 | 48.38851 | 21.38253 | 36311 ft | 484 kts | 157° |
| 2026-05-01 11:08 | 48.32331 | 21.40889 | 36304 ft | 484 kts | 157° |
| 2026-05-01 11:09 | 48.22635 | 21.44804 | 36303 ft | 482 kts | 157° |
| 2026-05-01 11:09 | 48.16139 | 21.47414 | 36315 ft | 486 kts | 157° |
| 2026-05-01 11:10 | 48.06348 | 21.51324 | 36322 ft | 484 kts | 157° |
| 2026-05-01 11:10 | 47.99898 | 21.53894 | 36322 ft | 481 kts | 157° |
| 2026-05-01 11:11 | 47.93411 | 21.56482 | 36325 ft | 486 kts | 157° |
| 2026-05-01 11:11 | 47.86933 | 21.59055 | 36319 ft | 481 kts | 157° |
| 2026-05-01 11:12 | 47.80470 | 21.61611 | 36307 ft | 483 kts | 157° |
| 2026-05-01 11:12 | 47.74017 | 21.64261 | 36307 ft | 483 kts | 156° |
| 2026-05-01 11:13 | 47.70775 | 21.65689 | 36609 ft | 483 kts | 156° |
| 2026-05-01 11:13 | 47.67568 | 21.67131 | 36433 ft | 483 kts | 156° |
| 2026-05-01 11:13 | 47.61199 | 21.69988 | 36316 ft | 476 kts | 156° |
| 2026-05-01 11:14 | 47.54835 | 21.72832 | 36306 ft | 480 kts | 156° |
| 2026-05-01 11:14 | 47.48436 | 21.75664 | 36302 ft | 480 kts | 156° |
| 2026-05-01 11:15 | 47.42059 | 21.78466 | 36318 ft | 480 kts | 156° |
| 2026-05-01 11:15 | 47.35652 | 21.81269 | 36303 ft | 479 kts | 156° |
| 2026-05-01 11:16 | 47.29274 | 21.84055 | 36309 ft | 482 kts | 156° |
| 2026-05-01 11:16 | 47.22903 | 21.86813 | 36310 ft | 477 kts | 157° |
| 2026-05-01 11:17 | 47.16494 | 21.89583 | 36315 ft | 481 kts | 157° |
| 2026-05-01 11:17 | 47.10120 | 21.92338 | 36316 ft | 479 kts | 157° |
| 2026-05-01 11:18 | 47.03750 | 21.95089 | 36325 ft | 478 kts | 157° |
| 2026-05-01 11:18 | 46.97314 | 21.97866 | 36311 ft | 480 kts | 157° |
| 2026-05-01 11:19 | 46.90961 | 22.00592 | 36312 ft | 478 kts | 158° |
| 2026-05-01 11:19 | 46.84589 | 22.03323 | 36311 ft | 481 kts | 158° |
| 2026-05-01 11:20 | 46.78147 | 22.06071 | 36304 ft | 479 kts | 158° |
| 2026-05-01 11:20 | 46.71818 | 22.08752 | 36300 ft | 478 kts | 158° |
| 2026-05-01 11:21 | 46.65412 | 22.11464 | 36293 ft | 477 kts | 159° |
| 2026-05-01 11:21 | 46.59012 | 22.14170 | 36293 ft | 480 kts | 158° |
| 2026-05-01 11:22 | 46.52622 | 22.16882 | 36274 ft | 477 kts | 159° |
| 2026-05-01 11:22 | 46.46240 | 22.19573 | 36264 ft | 477 kts | 159° |
| 2026-05-01 11:23 | 46.39899 | 22.22240 | 36255 ft | 478 kts | 159° |
| 2026-05-01 11:23 | 46.33539 | 22.24901 | 36265 ft | 478 kts | 159° |
| 2026-05-01 11:24 | 46.27141 | 22.27574 | 36261 ft | 479 kts | 159° |
| 2026-05-01 11:25 | 46.17603 | 22.31541 | 36272 ft | 476 kts | 159° |
| 2026-05-01 11:25 | 46.08065 | 22.35503 | 36270 ft | 477 kts | 160° |
| 2026-05-01 11:26 | 45.98533 | 22.39458 | 36270 ft | 476 kts | 160° |
| 2026-05-01 11:27 | 45.92206 | 22.42077 | 36267 ft | 475 kts | 160° |
| 2026-05-01 11:27 | 45.85827 | 22.44710 | 36249 ft | 476 kts | 160° |
| 2026-05-01 11:28 | 45.79475 | 22.47322 | 36234 ft | 475 kts | 161° |
| 2026-05-01 11:28 | 45.73121 | 22.49926 | 36213 ft | 476 kts | 161° |
| 2026-05-01 11:29 | 45.63536 | 22.53843 | 36223 ft | 474 kts | 161° |
| 2026-05-01 11:30 | 45.54018 | 22.57717 | 36237 ft | 474 kts | 161° |
| 2026-05-01 11:30 | 45.47680 | 22.60291 | 36243 ft | 475 kts | 161° |
| 2026-05-01 11:31 | 45.41315 | 22.62871 | 36227 ft | 475 kts | 161° |
| 2026-05-01 11:31 | 45.34956 | 22.65439 | 36206 ft | 474 kts | 162° |
| 2026-05-01 11:32 | 45.28603 | 22.67995 | 36179 ft | 475 kts | 162° |
| 2026-05-01 11:32 | 45.22267 | 22.70547 | 36159 ft | 473 kts | 162° |
| 2026-05-01 11:33 | 45.15960 | 22.73081 | 36177 ft | 474 kts | 163° |
| 2026-05-01 11:33 | 45.09586 | 22.75632 | 36199 ft | 474 kts | 163° |
| 2026-05-01 11:34 | 45.03260 | 22.78156 | 36229 ft | 472 kts | 163° |
| 2026-05-01 11:34 | 44.96962 | 22.80667 | 36252 ft | 473 kts | 163° |
| 2026-05-01 11:35 | 44.90624 | 22.83186 | 36260 ft | 473 kts | 163° |
| 2026-05-01 11:35 | 44.84311 | 22.85823 | 36264 ft | 472 kts | 160° |
| 2026-05-01 11:36 | 44.78166 | 22.89046 | 36267 ft | 472 kts | 157° |
| 2026-05-01 11:36 | 44.72056 | 22.92471 | 36277 ft | 471 kts | 157° |
| 2026-05-01 11:37 | 44.65979 | 22.95845 | 36285 ft | 472 kts | 158° |
| 2026-05-01 11:37 | 44.59843 | 22.99192 | 36293 ft | 472 kts | 158° |
| 2026-05-01 11:38 | 44.53711 | 23.02499 | 36294 ft | 471 kts | 158° |
| 2026-05-01 11:38 | 44.47562 | 23.05792 | 36296 ft | 471 kts | 158° |
| 2026-05-01 11:39 | 44.41428 | 23.09067 | 36296 ft | 472 kts | 159° |
| 2026-05-01 11:39 | 44.35290 | 23.12332 | 36295 ft | 471 kts | 159° |
| 2026-05-01 11:40 | 44.29157 | 23.15589 | 36300 ft | 472 kts | 159° |
| 2026-05-01 11:40 | 44.23022 | 23.18839 | 36295 ft | 470 kts | 159° |
| 2026-05-01 11:41 | 44.16913 | 23.22068 | 36299 ft | 471 kts | 159° |
| 2026-05-01 11:41 | 44.10786 | 23.25299 | 36299 ft | 470 kts | 159° |
| 2026-05-01 11:42 | 44.04695 | 23.28505 | 36299 ft | 471 kts | 159° |
| 2026-05-01 11:42 | 43.98568 | 23.31723 | 36294 ft | 470 kts | 159° |
| 2026-05-01 11:43 | 43.92441 | 23.34933 | 36292 ft | 470 kts | 159° |
| 2026-05-01 11:43 | 43.86354 | 23.38116 | 36288 ft | 469 kts | 159° |
| 2026-05-01 11:44 | 43.77173 | 23.42903 | 36285 ft | 470 kts | 160° |
| 2026-05-01 11:44 | 43.71038 | 23.46092 | 36285 ft | 471 kts | 160° |
| 2026-05-01 11:45 | 43.64931 | 23.49262 | 36284 ft | 471 kts | 160° |
| 2026-05-01 11:45 | 43.58802 | 23.52434 | 36282 ft | 471 kts | 160° |
| 2026-05-01 11:46 | 43.52683 | 23.55595 | 36285 ft | 470 kts | 160° |
| 2026-05-01 11:46 | 43.46581 | 23.58740 | 36284 ft | 469 kts | 160° |
| 2026-05-01 11:47 | 43.40449 | 23.61894 | 36283 ft | 471 kts | 160° |
| 2026-05-01 11:47 | 43.34318 | 23.65040 | 36279 ft | 470 kts | 161° |
| 2026-05-01 11:48 | 43.28172 | 23.68189 | 36282 ft | 470 kts | 161° |
| 2026-05-01 11:48 | 43.22048 | 23.71317 | 36276 ft | 471 kts | 161° |
| 2026-05-01 11:49 | 43.15887 | 23.74459 | 36273 ft | 470 kts | 161° |
| 2026-05-01 11:49 | 43.09784 | 23.77564 | 36270 ft | 469 kts | 161° |
| 2026-05-01 11:50 | 43.03643 | 23.80681 | 36271 ft | 470 kts | 161° |
| 2026-05-01 11:50 | 42.97551 | 23.83948 | 36259 ft | 471 kts | 159° |
| 2026-05-01 11:51 | 42.91522 | 23.87406 | 36250 ft | 471 kts | 158° |
| 2026-05-01 11:51 | 42.85487 | 23.90888 | 36228 ft | 472 kts | 159° |
| 2026-05-01 11:52 | 42.79475 | 23.94323 | 36202 ft | 470 kts | 159° |
| 2026-05-01 11:52 | 42.73443 | 23.97743 | 36174 ft | 470 kts | 159° |
| 2026-05-01 11:53 | 42.67381 | 24.01160 | 36184 ft | 471 kts | 159° |
| 2026-05-01 11:53 | 42.61299 | 24.04576 | 36209 ft | 472 kts | 160° |
| 2026-05-01 11:54 | 42.55247 | 24.07968 | 36235 ft | 472 kts | 159° |
| 2026-05-01 11:54 | 42.49162 | 24.11368 | 36252 ft | 472 kts | 160° |
| 2026-05-01 11:55 | 42.43095 | 24.14751 | 36254 ft | 472 kts | 160° |
| 2026-05-01 11:55 | 42.37016 | 24.18135 | 36257 ft | 471 kts | 160° |
| 2026-05-01 11:56 | 42.30972 | 24.21494 | 36254 ft | 472 kts | 160° |
| 2026-05-01 11:56 | 42.24936 | 24.24843 | 36260 ft | 473 kts | 160° |
| 2026-05-01 11:57 | 42.18774 | 24.28253 | 36260 ft | 472 kts | 160° |
| 2026-05-01 11:57 | 42.12710 | 24.31601 | 36248 ft | 472 kts | 160° |
| 2026-05-01 11:58 | 42.06636 | 24.34947 | 36232 ft | 471 kts | 161° |
| 2026-05-01 11:59 | 41.97530 | 24.39949 | 36196 ft | 472 kts | 161° |
| 2026-05-01 11:59 | 41.91454 | 24.43278 | 36184 ft | 471 kts | 161° |
| 2026-05-01 12:00 | 41.82349 | 24.48257 | 36160 ft | 472 kts | 161° |
| 2026-05-01 12:01 | 41.73218 | 24.53234 | 36142 ft | 472 kts | 161° |
| 2026-05-01 12:01 | 41.67138 | 24.56539 | 36141 ft | 472 kts | 161° |
| 2026-05-01 12:02 | 41.61075 | 24.59828 | 36153 ft | 472 kts | 161° |
| 2026-05-01 12:02 | 41.54960 | 24.63143 | 36147 ft | 472 kts | 161° |
| 2026-05-01 12:03 | 41.48890 | 24.66423 | 36165 ft | 471 kts | 162° |
| 2026-05-01 12:03 | 41.42931 | 24.70029 | 36186 ft | 476 kts | 154° |
| 2026-05-01 12:04 | 41.37444 | 24.75225 | 36198 ft | 482 kts | 143° |
| 2026-05-01 12:04 | 41.32410 | 24.81115 | 36197 ft | 483 kts | 141° |
| 2026-05-01 12:05 | 41.27481 | 24.87125 | 36206 ft | 484 kts | 141° |
| 2026-05-01 12:05 | 41.19997 | 24.96127 | 36219 ft | 483 kts | 141° |
| 2026-05-01 12:06 | 41.14980 | 25.02057 | 36229 ft | 484 kts | 142° |
| 2026-05-01 12:06 | 41.09939 | 25.07974 | 36228 ft | 484 kts | 142° |
| 2026-05-01 12:07 | 41.04895 | 25.13871 | 36215 ft | 484 kts | 142° |
| 2026-05-01 12:07 | 40.99857 | 25.19751 | 36217 ft | 483 kts | 142° |
| 2026-05-01 12:08 | 40.94813 | 25.25624 | 36214 ft | 484 kts | 142° |
| 2026-05-01 12:08 | 40.89801 | 25.31554 | 36215 ft | 487 kts | 139° |
| 2026-05-01 12:09 | 40.85095 | 25.37971 | 36210 ft | 489 kts | 135° |
| 2026-05-01 12:09 | 40.80547 | 25.44615 | 36209 ft | 489 kts | 135° |
| 2026-05-01 12:10 | 40.73712 | 25.54590 | 36213 ft | 490 kts | 136° |
| 2026-05-01 12:11 | 40.66797 | 25.64500 | 36212 ft | 490 kts | 136° |
| 2026-05-01 12:11 | 40.62197 | 25.71039 | 36206 ft | 490 kts | 136° |
| 2026-05-01 12:12 | 40.57559 | 25.77610 | 36207 ft | 491 kts | 137° |
| 2026-05-01 12:12 | 40.52897 | 25.84200 | 36202 ft | 490 kts | 137° |
| 2026-05-01 12:13 | 40.48282 | 25.90745 | 36205 ft | 490 kts | 136° |
| 2026-05-01 12:13 | 40.43767 | 25.97460 | 36196 ft | 492 kts | 135° |
| 2026-05-01 12:14 | 40.39310 | 26.04220 | 36197 ft | 492 kts | 135° |
| 2026-05-01 12:14 | 40.34832 | 26.10987 | 36197 ft | 493 kts | 135° |
| 2026-05-01 12:15 | 40.30326 | 26.17747 | 36196 ft | 494 kts | 135° |
| 2026-05-01 12:15 | 40.25796 | 26.24503 | 36197 ft | 494 kts | 135° |
| 2026-05-01 12:16 | 40.21289 | 26.31205 | 36202 ft | 492 kts | 136° |
| 2026-05-01 12:16 | 40.16743 | 26.37945 | 36187 ft | 494 kts | 136° |
| 2026-05-01 12:17 | 40.12187 | 26.44635 | 36183 ft | 492 kts | 137° |
| 2026-05-01 12:17 | 40.07380 | 26.50987 | 36181 ft | 491 kts | 141° |
| 2026-05-01 12:18 | 40.02465 | 26.57127 | 36164 ft | 492 kts | 141° |
| 2026-05-01 12:18 | 39.97540 | 26.63274 | 36152 ft | 492 kts | 141° |
| 2026-05-01 12:19 | 39.92604 | 26.69482 | 36139 ft | 492 kts | 141° |
| 2026-05-01 12:19 | 39.87692 | 26.75691 | 36133 ft | 492 kts | 141° |
| 2026-05-01 12:20 | 39.82800 | 26.81885 | 36120 ft | 493 kts | 141° |
| 2026-05-01 12:20 | 39.77912 | 26.88073 | 36131 ft | 492 kts | 142° |
| 2026-05-01 12:21 | 39.72970 | 26.94253 | 36125 ft | 490 kts | 142° |
| 2026-05-01 12:21 | 39.68010 | 27.00330 | 36122 ft | 491 kts | 142° |
| 2026-05-01 12:22 | 39.63052 | 27.06367 | 36131 ft | 493 kts | 142° |
| 2026-05-01 12:22 | 39.58054 | 27.12456 | 36132 ft | 493 kts | 142° |
| 2026-05-01 12:23 | 39.52785 | 27.18009 | 36117 ft | 481 kts | 157° |
| 2026-05-01 12:23 | 39.49820 | 27.19764 | 36113 ft | 467 kts | 170° |
| 2026-05-01 12:23 | 39.46693 | 27.20671 | 36121 ft | 455 kts | 181° |
| 2026-05-01 12:24 | 39.40497 | 27.20785 | 36111 ft | 439 kts | 193° |
| 2026-05-01 12:24 | 39.34475 | 27.19854 | 36109 ft | 436 kts | 197° |
| 2026-05-01 12:25 | 39.25460 | 27.18065 | 36098 ft | 437 kts | 197° |
| 2026-05-01 12:26 | 39.19465 | 27.16901 | 36088 ft | 437 kts | 197° |
| 2026-05-01 12:26 | 39.10473 | 27.15223 | 36088 ft | 436 kts | 197° |
| 2026-05-01 12:27 | 39.01466 | 27.13578 | 36083 ft | 435 kts | 197° |
| 2026-05-01 12:28 | 38.92503 | 27.11923 | 36090 ft | 436 kts | 198° |
| 2026-05-01 12:29 | 38.83505 | 27.10242 | 36038 ft | 441 kts | 197° |
| 2026-05-01 12:29 | 38.74408 | 27.08564 | 36065 ft | 438 kts | 198° |
| 2026-05-01 12:30 | 38.65420 | 27.06904 | 36062 ft | 439 kts | 198° |
| 2026-05-01 12:31 | 38.59366 | 27.05789 | 36053 ft | 436 kts | 198° |
| 2026-05-01 12:31 | 38.53461 | 27.04709 | 36047 ft | 438 kts | 198° |
| 2026-05-01 12:32 | 38.47384 | 27.03596 | 36033 ft | 438 kts | 198° |
| 2026-05-01 12:32 | 38.38361 | 27.01990 | 36042 ft | 441 kts | 196° |
| 2026-05-01 12:33 | 38.35300 | 27.01714 | 35829 ft | 445 kts | 191° |
| 2026-05-01 12:33 | 38.32209 | 27.01935 | 35406 ft | 455 kts | 182° |
| 2026-05-01 12:33 | 38.29056 | 27.02714 | 34794 ft | 468 kts | 175° |
| 2026-05-01 12:33 | 38.25916 | 27.03966 | 34024 ft | 481 kts | 171° |
| 2026-05-01 12:34 | 38.22773 | 27.05491 | 33176 ft | 489 kts | 167° |
| 2026-05-01 12:34 | 38.19619 | 27.07174 | 32323 ft | 495 kts | 165° |
| 2026-05-01 12:34 | 38.16465 | 27.08939 | 31648 ft | 494 kts | 164° |
| 2026-05-01 12:34 | 38.13357 | 27.10713 | 31006 ft | 491 kts | 164° |
| 2026-05-01 12:35 | 38.10281 | 27.12471 | 30361 ft | 489 kts | 163° |
| 2026-05-01 12:35 | 38.07156 | 27.14250 | 29656 ft | 485 kts | 164° |
| 2026-05-01 12:35 | 38.04116 | 27.15967 | 28993 ft | 481 kts | 163° |
| 2026-05-01 12:35 | 38.01073 | 27.17675 | 28333 ft | 477 kts | 164° |
| 2026-05-01 12:36 | 37.98067 | 27.19352 | 27690 ft | 472 kts | 164° |
| 2026-05-01 12:36 | 37.95101 | 27.20998 | 27040 ft | 465 kts | 163° |
| 2026-05-01 12:36 | 37.92156 | 27.22632 | 26409 ft | 450 kts | 163° |
| 2026-05-01 12:36 | 37.89336 | 27.24196 | 25797 ft | 437 kts | 164° |
| 2026-05-01 12:37 | 37.86613 | 27.25700 | 25215 ft | 424 kts | 163° |
| 2026-05-01 12:37 | 37.83970 | 27.27154 | 24626 ft | 412 kts | 164° |
| 2026-05-01 12:37 | 37.81374 | 27.28579 | 24054 ft | 401 kts | 163° |
| 2026-05-01 12:37 | 37.78856 | 27.29963 | 23503 ft | 390 kts | 163° |
| 2026-05-01 12:38 | 37.76397 | 27.31311 | 22955 ft | 380 kts | 164° |
| 2026-05-01 12:38 | 37.73951 | 27.32642 | 22421 ft | 390 kts | 164° |
| 2026-05-01 12:38 | 37.71453 | 27.33982 | 21858 ft | 395 kts | 163° |
| 2026-05-01 12:38 | 37.68941 | 27.35343 | 21305 ft | 391 kts | 163° |
| 2026-05-01 12:39 | 37.66439 | 27.36706 | 20834 ft | 385 kts | 163° |
| 2026-05-01 12:39 | 37.64050 | 27.38015 | 20619 ft | 372 kts | 163° |
| 2026-05-01 12:39 | 37.61719 | 27.39305 | 20468 ft | 360 kts | 162° |
| 2026-05-01 12:39 | 37.59454 | 27.40590 | 19976 ft | 358 kts | 162° |
| 2026-05-01 12:40 | 37.57185 | 27.41895 | 19450 ft | 357 kts | 161° |
| 2026-05-01 12:40 | 37.54944 | 27.43189 | 18999 ft | 354 kts | 161° |
| 2026-05-01 12:40 | 37.52719 | 27.44477 | 18546 ft | 351 kts | 160° |
| 2026-05-01 12:40 | 37.50587 | 27.45906 | 18108 ft | 351 kts | 153° |
| 2026-05-01 12:41 | 37.48622 | 27.47715 | 17761 ft | 351 kts | 144° |
| 2026-05-01 12:41 | 37.46804 | 27.49820 | 17232 ft | 353 kts | 140° |
| 2026-05-01 12:41 | 37.45105 | 27.51994 | 16788 ft | 352 kts | 138° |
| 2026-05-01 12:41 | 37.43407 | 27.54221 | 16340 ft | 350 kts | 138° |
| 2026-05-01 12:42 | 37.41728 | 27.56409 | 15892 ft | 348 kts | 138° |
| 2026-05-01 12:42 | 37.40071 | 27.58627 | 15453 ft | 347 kts | 133° |
| 2026-05-01 12:42 | 37.38718 | 27.61099 | 15010 ft | 350 kts | 119° |
| 2026-05-01 12:42 | 37.37823 | 27.63922 | 14567 ft | 349 kts | 109° |
| 2026-05-01 12:43 | 37.37136 | 27.66834 | 14124 ft | 347 kts | 107° |
| 2026-05-01 12:43 | 37.36491 | 27.69764 | 13696 ft | 345 kts | 106° |
| 2026-05-01 12:43 | 37.35849 | 27.72622 | 13481 ft | 335 kts | 107° |
| 2026-05-01 12:43 | 37.35213 | 27.75382 | 13280 ft | 326 kts | 107° |
| 2026-05-01 12:44 | 37.34577 | 27.78068 | 13021 ft | 320 kts | 108° |
| 2026-05-01 12:44 | 37.33943 | 27.80715 | 12775 ft | 314 kts | 108° |
| 2026-05-01 12:44 | 37.32688 | 27.85957 | 12295 ft | 319 kts | 107° |
| 2026-05-01 12:45 | 37.31410 | 27.91262 | 11562 ft | 317 kts | 108° |
| 2026-05-01 12:45 | 37.30772 | 27.93901 | 11190 ft | 315 kts | 108° |
| 2026-05-01 12:45 | 37.30140 | 27.96511 | 10828 ft | 312 kts | 108° |
| 2026-05-01 12:46 | 37.29514 | 27.99100 | 10454 ft | 308 kts | 108° |
| 2026-05-01 12:46 | 37.28907 | 28.01617 | 10118 ft | 300 kts | 108° |
| 2026-05-01 12:46 | 37.28312 | 28.04088 | 9757 ft | 298 kts | 108° |
| 2026-05-01 12:46 | 37.27713 | 28.06580 | 9410 ft | 297 kts | 108° |
| 2026-05-01 12:47 | 37.27115 | 28.09059 | 9071 ft | 294 kts | 108° |
| 2026-05-01 12:47 | 37.26508 | 28.11472 | 8723 ft | 293 kts | 112° |
| 2026-05-01 12:47 | 37.25635 | 28.13772 | 8368 ft | 290 kts | 123° |
| 2026-05-01 12:47 | 37.24273 | 28.15545 | 8028 ft | 282 kts | 153° |
| 2026-05-01 12:48 | 37.22442 | 28.16167 | 7735 ft | 269 kts | 184° |
| 2026-05-01 12:48 | 37.20648 | 28.15702 | 7442 ft | 260 kts | 202° |
| 2026-05-01 12:48 | 37.18974 | 28.14952 | 7272 ft | 252 kts | 201° |
| 2026-05-01 12:48 | 37.17343 | 28.14290 | 7197 ft | 241 kts | 202° |
| 2026-05-01 12:49 | 37.15853 | 28.13433 | 7121 ft | 227 kts | 220° |
| 2026-05-01 12:49 | 37.14951 | 28.11911 | 7094 ft | 220 kts | 254° |
| 2026-05-01 12:49 | 37.14782 | 28.10015 | 7083 ft | 225 kts | 275° |
| 2026-05-01 12:49 | 37.15086 | 28.08074 | 7078 ft | 226 kts | 285° |
| 2026-05-01 12:50 | 37.15557 | 28.06191 | 7077 ft | 227 kts | 287° |
| 2026-05-01 12:50 | 37.16044 | 28.04321 | 7074 ft | 226 kts | 287° |
| 2026-05-01 12:50 | 37.16514 | 28.02469 | 6950 ft | 221 kts | 287° |
| 2026-05-01 12:50 | 37.16966 | 28.00639 | 6751 ft | 217 kts | 287° |
| 2026-05-01 12:51 | 37.17401 | 27.98839 | 6395 ft | 222 kts | 286° |
| 2026-05-01 12:51 | 37.17858 | 27.96940 | 5839 ft | 235 kts | 287° |
| 2026-05-01 12:51 | 37.18827 | 27.92896 | 4822 ft | 242 kts | 287° |
| 2026-05-01 12:52 | 37.19290 | 27.90951 | 4770 ft | 226 kts | 285° |
| 2026-05-01 12:52 | 37.20042 | 27.87218 | 4063 ft | 221 kts | 286° |
| 2026-05-01 12:52 | 37.20462 | 27.85401 | 3643 ft | 216 kts | 288° |
| 2026-05-01 12:53 | 37.21336 | 27.81892 | 2916 ft | 208 kts | 290° |
| 2026-05-01 12:53 | 37.21738 | 27.80271 | 2588 ft | 180 kts | 289° |
| 2026-05-01 12:53 | 37.22090 | 27.78846 | 2277 ft | 160 kts | 289° |
| 2026-05-01 12:54 | 37.22412 | 27.77573 | 2019 ft | 153 kts | 290° |
| 2026-05-01 12:54 | 37.23050 | 27.75025 | 1440 ft | 157 kts | 289° |
| 2026-05-01 12:54 | 37.23397 | 27.73713 | 1142 ft | 157 kts | 290° |
| 2026-05-01 12:55 | 37.23985 | 27.71253 | 769 ft | 140 kts | 287° |
| 2026-05-01 12:55 | 37.24265 | 27.70097 | 522 ft | 139 kts | 285° |
| 2026-05-01 12:55 | 37.24547 | 27.68926 | 252 ft | 139 kts | 285° |
| 2026-05-01 12:56 | 37.24817 | 27.67771 | 43 ft | 134 kts | 285° |
| 2026-05-01 12:56 | 37.25023 | 27.66858 | 21 ft | 71 kts | 289° |
| 2026-05-01 12:56 | 37.25145 | 27.66383 | 18 ft | 44 kts | 287° |
| 2026-05-01 12:56 | 37.25211 | 27.66105 | 16 ft | 25 kts | 286° |
| 2026-05-01 12:57 | 37.25246 | 27.65952 | 14 ft | 17 kts | 286° |
| 2026-05-01 12:57 | 37.25236 | 27.65708 | 14 ft | 10 kts | 257° |
| 2026-05-01 12:57 | 37.25220 | 27.65622 | 14 ft | 9 kts | 258° |
| 2026-05-01 12:58 | 37.25211 | 27.65573 | 14 ft | 3 kts | 244° |
| 2026-05-01 12:58 | 37.25167 | 27.65561 | 14 ft | 9 kts | 142° |
| 2026-05-01 12:58 | 37.25144 | 27.65649 | 14 ft | 12 kts | 104° |
| 2026-05-01 12:59 | 37.25097 | 27.65853 | 14 ft | 11 kts | 108° |
| 2026-05-01 12:59 | 37.25072 | 27.65942 | 14 ft | 9 kts | 117° |
| 2026-05-01 12:59 | 37.24960 | 27.65936 | 15 ft | 6 kts | 195° |
| 2026-05-01 13:00 | 37.24890 | 27.66101 | 16 ft | 19 kts | 107° |
| 2026-05-01 13:00 | 37.24853 | 27.66253 | 19 ft | 16 kts | 107° |
| 2026-05-01 13:01 | 37.24790 | 27.66491 | 21 ft | 12 kts | 126° |
| 2026-05-01 13:01 | 37.24753 | 27.66581 | 22 ft | 11 kts | 106° |
| 2026-05-01 13:01 | 37.24714 | 27.66744 | 23 ft | 8 kts | 108° |
| 2026-05-01 13:02 | 37.24692 | 27.66789 | 23 ft | 3 kts | 165° |
| 2026-05-01 13:07 | 37.24627 | 27.66768 | 25 ft | 0 kts | 197° |